sensor_id;sensor_type;location;lat;lon;timestamp;P1;durP1;ratioP1;P2;durP2;ratioP2
13406;SDS011;6774;48.208;10.766;2024-03-08T00:00:13;14.83;;;13.27;;
13406;SDS011;6774;48.208;10.766;2024-03-08T00:02:43;16.23;;;11.73;;
13406;SDS011;6774;48.208;10.766;2024-03-08T00:05:12;14.87;;;12.53;;
13406;SDS011;6774;48.208;10.766;2024-03-08T00:07:41;24.37;;;13.07;;
13406;SDS011;6774;48.208;10.766;2024-03-08T00:10:10;14.53;;;12.87;;
13406;SDS011;6774;48.208;10.766;2024-03-08T00:12:41;13.13;;;11.80;;
13406;SDS011;6774;48.208;10.766;2024-03-08T00:15:11;15.33;;;12.57;;
13406;SDS011;6774;48.208;10.766;2024-03-08T00:17:42;13.03;;;9.80;;
13406;SDS011;6774;48.208;10.766;2024-03-08T00:20:11;14.77;;;13.00;;
13406;SDS011;6774;48.208;10.766;2024-03-08T00:22:40;13.77;;;12.33;;
13406;SDS011;6774;48.208;10.766;2024-03-08T00:25:08;11.63;;;10.37;;
13406;SDS011;6774;48.208;10.766;2024-03-08T00:27:36;11.73;;;10.10;;
13406;SDS011;6774;48.208;10.766;2024-03-08T00:30:05;13.27;;;10.03;;
13406;SDS011;6774;48.208;10.766;2024-03-08T00:32:35;11.87;;;10.17;;
13406;SDS011;6774;48.208;10.766;2024-03-08T00:35:04;10.53;;;8.70;;
13406;SDS011;6774;48.208;10.766;2024-03-08T00:37:34;13.57;;;10.80;;
13406;SDS011;6774;48.208;10.766;2024-03-08T00:40:02;12.00;;;10.73;;
13406;SDS011;6774;48.208;10.766;2024-03-08T00:42:31;13.33;;;10.70;;
13406;SDS011;6774;48.208;10.766;2024-03-08T00:45:00;14.60;;;13.10;;
13406;SDS011;6774;48.208;10.766;2024-03-08T00:47:28;10.27;;;8.83;;
13406;SDS011;6774;48.208;10.766;2024-03-08T00:49:57;12.50;;;11.23;;
13406;SDS011;6774;48.208;10.766;2024-03-08T00:52:26;12.07;;;10.63;;
13406;SDS011;6774;48.208;10.766;2024-03-08T00:54:53;9.90;;;8.77;;
13406;SDS011;6774;48.208;10.766;2024-03-08T00:57:21;15.53;;;9.60;;
13406;SDS011;6774;48.208;10.766;2024-03-08T00:59:49;14.20;;;9.77;;
13406;SDS011;6774;48.208;10.766;2024-03-08T01:02:17;12.80;;;10.93;;
13406;SDS011;6774;48.208;10.766;2024-03-08T01:04:45;10.40;;;9.33;;
13406;SDS011;6774;48.208;10.766;2024-03-08T01:07:15;12.13;;;9.97;;
13406;SDS011;6774;48.208;10.766;2024-03-08T01:09:43;12.47;;;9.67;;
13406;SDS011;6774;48.208;10.766;2024-03-08T01:12:11;12.07;;;10.77;;
13406;SDS011;6774;48.208;10.766;2024-03-08T01:14:38;11.80;;;10.33;;
13406;SDS011;6774;48.208;10.766;2024-03-08T01:17:06;14.17;;;11.63;;
13406;SDS011;6774;48.208;10.766;2024-03-08T01:19:36;9.57;;;8.57;;
13406;SDS011;6774;48.208;10.766;2024-03-08T01:22:03;13.27;;;10.17;;
13406;SDS011;6774;48.208;10.766;2024-03-08T01:24:33;13.70;;;11.30;;
13406;SDS011;6774;48.208;10.766;2024-03-08T01:27:02;11.40;;;10.30;;
13406;SDS011;6774;48.208;10.766;2024-03-08T01:29:30;11.77;;;10.23;;
13406;SDS011;6774;48.208;10.766;2024-03-08T01:31:59;15.87;;;12.83;;
13406;SDS011;6774;48.208;10.766;2024-03-08T01:34:28;10.87;;;9.80;;
13406;SDS011;6774;48.208;10.766;2024-03-08T01:36:56;11.13;;;9.37;;
13406;SDS011;6774;48.208;10.766;2024-03-08T01:39:24;15.40;;;12.43;;
13406;SDS011;6774;48.208;10.766;2024-03-08T01:41:53;13.63;;;11.30;;
13406;SDS011;6774;48.208;10.766;2024-03-08T01:44:21;11.57;;;10.47;;
13406;SDS011;6774;48.208;10.766;2024-03-08T01:46:50;11.70;;;10.17;;
13406;SDS011;6774;48.208;10.766;2024-03-08T01:49:20;9.87;;;8.97;;
13406;SDS011;6774;48.208;10.766;2024-03-08T01:51:50;12.90;;;11.57;;
13406;SDS011;6774;48.208;10.766;2024-03-08T01:54:18;13.43;;;11.07;;
13406;SDS011;6774;48.208;10.766;2024-03-08T01:56:47;9.93;;;8.93;;
13406;SDS011;6774;48.208;10.766;2024-03-08T01:59:17;12.60;;;10.90;;
13406;SDS011;6774;48.208;10.766;2024-03-08T02:01:45;11.17;;;10.07;;
13406;SDS011;6774;48.208;10.766;2024-03-08T02:04:14;13.43;;;10.07;;
13406;SDS011;6774;48.208;10.766;2024-03-08T02:06:42;14.60;;;11.13;;
13406;SDS011;6774;48.208;10.766;2024-03-08T02:09:11;13.73;;;11.50;;
13406;SDS011;6774;48.208;10.766;2024-03-08T02:11:40;12.60;;;10.27;;
13406;SDS011;6774;48.208;10.766;2024-03-08T02:14:08;11.90;;;10.03;;
13406;SDS011;6774;48.208;10.766;2024-03-08T02:16:39;12.30;;;10.33;;
13406;SDS011;6774;48.208;10.766;2024-03-08T02:19:06;11.07;;;10.07;;
13406;SDS011;6774;48.208;10.766;2024-03-08T02:21:37;9.97;;;8.97;;
13406;SDS011;6774;48.208;10.766;2024-03-08T02:24:05;10.40;;;8.73;;
13406;SDS011;6774;48.208;10.766;2024-03-08T02:26:33;12.67;;;10.57;;
13406;SDS011;6774;48.208;10.766;2024-03-08T02:29:01;11.93;;;10.47;;
13406;SDS011;6774;48.208;10.766;2024-03-08T02:31:30;13.70;;;10.50;;
13406;SDS011;6774;48.208;10.766;2024-03-08T02:33:59;10.70;;;9.60;;
13406;SDS011;6774;48.208;10.766;2024-03-08T02:36:27;12.57;;;10.10;;
13406;SDS011;6774;48.208;10.766;2024-03-08T02:38:56;11.37;;;10.17;;
13406;SDS011;6774;48.208;10.766;2024-03-08T02:41:24;13.80;;;10.33;;
13406;SDS011;6774;48.208;10.766;2024-03-08T02:43:52;10.87;;;9.40;;
13406;SDS011;6774;48.208;10.766;2024-03-08T02:46:21;10.87;;;9.97;;
13406;SDS011;6774;48.208;10.766;2024-03-08T02:48:49;11.60;;;10.50;;
13406;SDS011;6774;48.208;10.766;2024-03-08T02:51:17;12.70;;;9.43;;
13406;SDS011;6774;48.208;10.766;2024-03-08T02:53:46;11.10;;;9.73;;
13406;SDS011;6774;48.208;10.766;2024-03-08T02:56:16;13.13;;;11.67;;
13406;SDS011;6774;48.208;10.766;2024-03-08T02:58:45;13.90;;;11.50;;
13406;SDS011;6774;48.208;10.766;2024-03-08T03:01:15;10.10;;;8.87;;
13406;SDS011;6774;48.208;10.766;2024-03-08T03:03:42;12.70;;;11.40;;
13406;SDS011;6774;48.208;10.766;2024-03-08T03:06:10;13.53;;;12.00;;
13406;SDS011;6774;48.208;10.766;2024-03-08T03:08:38;14.00;;;11.27;;
13406;SDS011;6774;48.208;10.766;2024-03-08T03:11:10;14.63;;;10.43;;
13406;SDS011;6774;48.208;10.766;2024-03-08T03:13:41;13.10;;;11.80;;
13406;SDS011;6774;48.208;10.766;2024-03-08T03:16:16;12.93;;;9.53;;
13406;SDS011;6774;48.208;10.766;2024-03-08T03:18:45;14.40;;;10.77;;
13406;SDS011;6774;48.208;10.766;2024-03-08T03:21:13;13.53;;;10.67;;
13406;SDS011;6774;48.208;10.766;2024-03-08T03:23:41;14.73;;;12.07;;
13406;SDS011;6774;48.208;10.766;2024-03-08T03:26:09;11.33;;;10.23;;
13406;SDS011;6774;48.208;10.766;2024-03-08T03:28:38;13.27;;;10.40;;
13406;SDS011;6774;48.208;10.766;2024-03-08T03:31:08;15.43;;;12.13;;
13406;SDS011;6774;48.208;10.766;2024-03-08T03:33:40;11.10;;;9.90;;
13406;SDS011;6774;48.208;10.766;2024-03-08T03:36:08;12.07;;;10.57;;
13406;SDS011;6774;48.208;10.766;2024-03-08T03:38:37;14.17;;;10.70;;
13406;SDS011;6774;48.208;10.766;2024-03-08T03:41:04;11.00;;;9.97;;
13406;SDS011;6774;48.208;10.766;2024-03-08T03:43:36;9.97;;;9.03;;
13406;SDS011;6774;48.208;10.766;2024-03-08T03:46:05;11.67;;;10.23;;
13406;SDS011;6774;48.208;10.766;2024-03-08T03:48:37;13.30;;;11.90;;
13406;SDS011;6774;48.208;10.766;2024-03-08T03:51:05;11.80;;;10.40;;
13406;SDS011;6774;48.208;10.766;2024-03-08T03:53:34;14.90;;;13.37;;
13406;SDS011;6774;48.208;10.766;2024-03-08T03:56:01;16.93;;;13.13;;
13406;SDS011;6774;48.208;10.766;2024-03-08T03:58:31;12.30;;;11.10;;
13406;SDS011;6774;48.208;10.766;2024-03-08T04:00:59;15.17;;;10.53;;
13406;SDS011;6774;48.208;10.766;2024-03-08T04:03:28;12.23;;;10.87;;
13406;SDS011;6774;48.208;10.766;2024-03-08T04:05:56;14.73;;;10.23;;
13406;SDS011;6774;48.208;10.766;2024-03-08T04:08:24;16.03;;;12.20;;
13406;SDS011;6774;48.208;10.766;2024-03-08T04:10:51;13.40;;;11.00;;
13406;SDS011;6774;48.208;10.766;2024-03-08T04:13:20;12.97;;;10.50;;
13406;SDS011;6774;48.208;10.766;2024-03-08T04:15:48;15.33;;;11.20;;
13406;SDS011;6774;48.208;10.766;2024-03-08T04:18:16;13.90;;;11.13;;
13406;SDS011;6774;48.208;10.766;2024-03-08T04:20:46;11.17;;;10.07;;
13406;SDS011;6774;48.208;10.766;2024-03-08T04:23:14;12.10;;;10.63;;
13406;SDS011;6774;48.208;10.766;2024-03-08T04:25:44;15.77;;;11.00;;
13406;SDS011;6774;48.208;10.766;2024-03-08T04:28:11;15.30;;;12.80;;
13406;SDS011;6774;48.208;10.766;2024-03-08T04:30:39;12.93;;;11.07;;
13406;SDS011;6774;48.208;10.766;2024-03-08T04:33:07;14.67;;;12.30;;
13406;SDS011;6774;48.208;10.766;2024-03-08T04:35:35;16.13;;;10.70;;
13406;SDS011;6774;48.208;10.766;2024-03-08T04:38:04;14.13;;;12.73;;
13406;SDS011;6774;48.208;10.766;2024-03-08T04:40:32;13.03;;;11.73;;
13406;SDS011;6774;48.208;10.766;2024-03-08T04:43:00;13.37;;;11.97;;
13406;SDS011;6774;48.208;10.766;2024-03-08T04:45:28;16.90;;;12.00;;
13406;SDS011;6774;48.208;10.766;2024-03-08T04:47:56;13.67;;;12.37;;
13406;SDS011;6774;48.208;10.766;2024-03-08T04:50:24;13.40;;;12.03;;
13406;SDS011;6774;48.208;10.766;2024-03-08T04:52:55;15.03;;;11.40;;
13406;SDS011;6774;48.208;10.766;2024-03-08T04:55:24;12.30;;;11.00;;
13406;SDS011;6774;48.208;10.766;2024-03-08T04:57:52;11.47;;;10.30;;
13406;SDS011;6774;48.208;10.766;2024-03-08T05:00:20;13.23;;;11.53;;
13406;SDS011;6774;48.208;10.766;2024-03-08T05:02:48;14.10;;;12.63;;
13406;SDS011;6774;48.208;10.766;2024-03-08T05:05:20;14.90;;;13.03;;
13406;SDS011;6774;48.208;10.766;2024-03-08T05:07:49;12.57;;;11.27;;
13406;SDS011;6774;48.208;10.766;2024-03-08T05:10:17;10.50;;;9.50;;
13406;SDS011;6774;48.208;10.766;2024-03-08T05:12:46;15.03;;;12.60;;
13406;SDS011;6774;48.208;10.766;2024-03-08T05:15:13;16.37;;;12.83;;
13406;SDS011;6774;48.208;10.766;2024-03-08T05:17:42;14.33;;;11.90;;
13406;SDS011;6774;48.208;10.766;2024-03-08T05:20:10;14.90;;;11.23;;
13406;SDS011;6774;48.208;10.766;2024-03-08T05:22:39;17.40;;;13.63;;
13406;SDS011;6774;48.208;10.766;2024-03-08T05:25:08;16.13;;;10.90;;
13406;SDS011;6774;48.208;10.766;2024-03-08T05:27:36;15.53;;;12.33;;
13406;SDS011;6774;48.208;10.766;2024-03-08T05:30:07;13.23;;;11.83;;
13406;SDS011;6774;48.208;10.766;2024-03-08T05:32:40;14.10;;;12.20;;
13406;SDS011;6774;48.208;10.766;2024-03-08T05:35:11;15.67;;;12.30;;
13406;SDS011;6774;48.208;10.766;2024-03-08T05:37:39;16.67;;;13.17;;
13406;SDS011;6774;48.208;10.766;2024-03-08T05:40:07;14.53;;;12.63;;
13406;SDS011;6774;48.208;10.766;2024-03-08T05:42:42;16.97;;;13.77;;
13406;SDS011;6774;48.208;10.766;2024-03-08T05:45:11;16.47;;;13.93;;
13406;SDS011;6774;48.208;10.766;2024-03-08T05:47:41;17.80;;;14.27;;
13406;SDS011;6774;48.208;10.766;2024-03-08T05:50:09;11.90;;;10.77;;
13406;SDS011;6774;48.208;10.766;2024-03-08T05:52:37;17.73;;;12.60;;
13406;SDS011;6774;48.208;10.766;2024-03-08T05:55:06;39.57;;;30.30;;
13406;SDS011;6774;48.208;10.766;2024-03-08T05:57:36;62.10;;;43.57;;
13406;SDS011;6774;48.208;10.766;2024-03-08T06:00:06;33.73;;;25.23;;
13406;SDS011;6774;48.208;10.766;2024-03-08T06:02:41;19.43;;;15.67;;
13406;SDS011;6774;48.208;10.766;2024-03-08T06:05:09;15.20;;;13.73;;
13406;SDS011;6774;48.208;10.766;2024-03-08T06:07:38;18.83;;;14.73;;
13406;SDS011;6774;48.208;10.766;2024-03-08T06:10:07;17.17;;;15.50;;
13406;SDS011;6774;48.208;10.766;2024-03-08T06:12:37;15.67;;;13.93;;
13406;SDS011;6774;48.208;10.766;2024-03-08T06:15:09;12.57;;;11.17;;
13406;SDS011;6774;48.208;10.766;2024-03-08T06:17:42;16.13;;;12.23;;
13406;SDS011;6774;48.208;10.766;2024-03-08T06:20:11;14.00;;;12.27;;
13406;SDS011;6774;48.208;10.766;2024-03-08T06:22:40;14.53;;;12.43;;
13406;SDS011;6774;48.208;10.766;2024-03-08T06:25:08;15.40;;;13.47;;
13406;SDS011;6774;48.208;10.766;2024-03-08T06:27:37;14.07;;;12.60;;
13406;SDS011;6774;48.208;10.766;2024-03-08T06:30:05;14.97;;;11.57;;
13406;SDS011;6774;48.208;10.766;2024-03-08T06:32:36;14.43;;;11.70;;
13406;SDS011;6774;48.208;10.766;2024-03-08T06:35:06;13.50;;;12.17;;
13406;SDS011;6774;48.208;10.766;2024-03-08T06:37:34;17.43;;;13.20;;
13406;SDS011;6774;48.208;10.766;2024-03-08T06:40:02;16.40;;;14.00;;
13406;SDS011;6774;48.208;10.766;2024-03-08T06:42:30;16.03;;;14.23;;
13406;SDS011;6774;48.208;10.766;2024-03-08T06:45:01;14.87;;;12.67;;
13406;SDS011;6774;48.208;10.766;2024-03-08T06:47:31;12.13;;;10.73;;
13406;SDS011;6774;48.208;10.766;2024-03-08T06:50:00;14.20;;;12.63;;
13406;SDS011;6774;48.208;10.766;2024-03-08T06:52:29;18.47;;;13.57;;
13406;SDS011;6774;48.208;10.766;2024-03-08T06:54:57;17.33;;;12.83;;
13406;SDS011;6774;48.208;10.766;2024-03-08T06:57:25;17.40;;;13.50;;
13406;SDS011;6774;48.208;10.766;2024-03-08T06:59:52;14.90;;;11.00;;
13406;SDS011;6774;48.208;10.766;2024-03-08T07:02:21;14.77;;;12.27;;
13406;SDS011;6774;48.208;10.766;2024-03-08T07:04:51;17.20;;;13.43;;
13406;SDS011;6774;48.208;10.766;2024-03-08T07:07:19;18.87;;;12.27;;
13406;SDS011;6774;48.208;10.766;2024-03-08T07:09:49;14.40;;;12.90;;
13406;SDS011;6774;48.208;10.766;2024-03-08T07:12:16;15.27;;;13.03;;
13406;SDS011;6774;48.208;10.766;2024-03-08T07:14:44;15.73;;;13.50;;
13406;SDS011;6774;48.208;10.766;2024-03-08T07:17:12;16.23;;;11.37;;
13406;SDS011;6774;48.208;10.766;2024-03-08T07:19:40;15.33;;;10.37;;
13406;SDS011;6774;48.208;10.766;2024-03-08T07:22:08;12.03;;;10.73;;
13406;SDS011;6774;48.208;10.766;2024-03-08T07:24:35;14.13;;;12.53;;
13406;SDS011;6774;48.208;10.766;2024-03-08T07:27:23;13.37;;;11.73;;
13406;SDS011;6774;48.208;10.766;2024-03-08T07:29:51;13.53;;;12.00;;
13406;SDS011;6774;48.208;10.766;2024-03-08T07:32:34;13.73;;;11.60;;
13406;SDS011;6774;48.208;10.766;2024-03-08T07:35:02;20.00;;;12.33;;
13406;SDS011;6774;48.208;10.766;2024-03-08T07:37:31;12.13;;;10.90;;
13406;SDS011;6774;48.208;10.766;2024-03-08T07:39:59;12.23;;;10.80;;
13406;SDS011;6774;48.208;10.766;2024-03-08T07:42:28;12.30;;;11.13;;
13406;SDS011;6774;48.208;10.766;2024-03-08T07:44:56;13.87;;;12.57;;
13406;SDS011;6774;48.208;10.766;2024-03-08T07:47:24;11.33;;;10.17;;
13406;SDS011;6774;48.208;10.766;2024-03-08T07:49:52;14.10;;;12.80;;
13406;SDS011;6774;48.208;10.766;2024-03-08T07:52:20;13.97;;;12.57;;
13406;SDS011;6774;48.208;10.766;2024-03-08T07:54:48;14.33;;;11.37;;
13406;SDS011;6774;48.208;10.766;2024-03-08T07:57:16;12.37;;;11.00;;
13406;SDS011;6774;48.208;10.766;2024-03-08T07:59:45;12.70;;;10.60;;
13406;SDS011;6774;48.208;10.766;2024-03-08T08:02:13;14.10;;;11.23;;
13406;SDS011;6774;48.208;10.766;2024-03-08T08:04:41;15.03;;;11.20;;
13406;SDS011;6774;48.208;10.766;2024-03-08T08:07:11;16.23;;;12.53;;
13406;SDS011;6774;48.208;10.766;2024-03-08T08:09:38;15.10;;;13.70;;
13406;SDS011;6774;48.208;10.766;2024-03-08T08:12:07;13.43;;;12.03;;
13406;SDS011;6774;48.208;10.766;2024-03-08T08:14:38;12.30;;;11.13;;
13406;SDS011;6774;48.208;10.766;2024-03-08T08:17:07;18.77;;;12.57;;
13406;SDS011;6774;48.208;10.766;2024-03-08T08:19:35;14.57;;;13.23;;
13406;SDS011;6774;48.208;10.766;2024-03-08T08:22:03;11.80;;;10.63;;
13406;SDS011;6774;48.208;10.766;2024-03-08T08:24:31;11.57;;;10.07;;
13406;SDS011;6774;48.208;10.766;2024-03-08T08:26:59;14.13;;;12.17;;
13406;SDS011;6774;48.208;10.766;2024-03-08T08:29:27;14.63;;;12.80;;
13406;SDS011;6774;48.208;10.766;2024-03-08T08:31:57;13.83;;;12.47;;
13406;SDS011;6774;48.208;10.766;2024-03-08T08:34:29;12.27;;;11.03;;
13406;SDS011;6774;48.208;10.766;2024-03-08T08:36:57;13.90;;;11.37;;
13406;SDS011;6774;48.208;10.766;2024-03-08T08:39:25;11.27;;;10.17;;
13406;SDS011;6774;48.208;10.766;2024-03-08T08:41:54;12.33;;;11.10;;
13406;SDS011;6774;48.208;10.766;2024-03-08T08:44:22;14.93;;;13.40;;
13406;SDS011;6774;48.208;10.766;2024-03-08T08:46:51;14.60;;;11.97;;
13406;SDS011;6774;48.208;10.766;2024-03-08T08:49:29;13.77;;;10.33;;
13406;SDS011;6774;48.208;10.766;2024-03-08T08:51:58;15.30;;;10.10;;
13406;SDS011;6774;48.208;10.766;2024-03-08T08:54:37;13.67;;;11.97;;
13406;SDS011;6774;48.208;10.766;2024-03-08T08:57:05;10.60;;;9.30;;
13406;SDS011;6774;48.208;10.766;2024-03-08T08:59:34;11.63;;;10.43;;
13406;SDS011;6774;48.208;10.766;2024-03-08T09:02:02;14.43;;;11.70;;
13406;SDS011;6774;48.208;10.766;2024-03-08T09:04:32;10.87;;;9.93;;
13406;SDS011;6774;48.208;10.766;2024-03-08T09:07:02;12.50;;;11.30;;
13406;SDS011;6774;48.208;10.766;2024-03-08T09:09:32;13.27;;;10.67;;
13406;SDS011;6774;48.208;10.766;2024-03-08T09:12:01;12.03;;;9.87;;
13406;SDS011;6774;48.208;10.766;2024-03-08T09:14:29;12.30;;;11.03;;
13406;SDS011;6774;48.208;10.766;2024-03-08T09:16:57;12.23;;;9.63;;
13406;SDS011;6774;48.208;10.766;2024-03-08T09:19:25;11.23;;;10.23;;
13406;SDS011;6774;48.208;10.766;2024-03-08T09:21:54;13.03;;;10.70;;
13406;SDS011;6774;48.208;10.766;2024-03-08T09:24:22;11.67;;;10.10;;
13406;SDS011;6774;48.208;10.766;2024-03-08T09:26:49;11.73;;;10.60;;
13406;SDS011;6774;48.208;10.766;2024-03-08T09:29:18;13.70;;;12.07;;
13406;SDS011;6774;48.208;10.766;2024-03-08T09:31:46;14.03;;;12.50;;
13406;SDS011;6774;48.208;10.766;2024-03-08T09:34:14;12.93;;;9.83;;
13406;SDS011;6774;48.208;10.766;2024-03-08T09:36:50;12.23;;;10.53;;
13406;SDS011;6774;48.208;10.766;2024-03-08T09:39:19;13.83;;;10.33;;
13406;SDS011;6774;48.208;10.766;2024-03-08T09:41:50;10.87;;;9.80;;
13406;SDS011;6774;48.208;10.766;2024-03-08T09:44:18;10.77;;;9.67;;
13406;SDS011;6774;48.208;10.766;2024-03-08T09:46:46;11.83;;;10.63;;
13406;SDS011;6774;48.208;10.766;2024-03-08T09:49:14;14.20;;;11.23;;
13406;SDS011;6774;48.208;10.766;2024-03-08T09:51:43;10.67;;;9.63;;
13406;SDS011;6774;48.208;10.766;2024-03-08T09:54:11;11.30;;;10.13;;
13406;SDS011;6774;48.208;10.766;2024-03-08T09:56:47;10.83;;;9.57;;
13406;SDS011;6774;48.208;10.766;2024-03-08T09:59:18;11.87;;;10.67;;
13406;SDS011;6774;48.208;10.766;2024-03-08T10:02:12;12.63;;;11.10;;
13406;SDS011;6774;48.208;10.766;2024-03-08T10:04:43;12.17;;;11.07;;
13406;SDS011;6774;48.208;10.766;2024-03-08T10:07:13;11.70;;;10.50;;
13406;SDS011;6774;48.208;10.766;2024-03-08T10:09:42;12.67;;;11.37;;
13406;SDS011;6774;48.208;10.766;2024-03-08T10:12:17;12.37;;;11.33;;
13406;SDS011;6774;48.208;10.766;2024-03-08T10:14:46;11.83;;;9.33;;
13406;SDS011;6774;48.208;10.766;2024-03-08T10:17:14;12.60;;;10.87;;
13406;SDS011;6774;48.208;10.766;2024-03-08T10:19:49;16.47;;;11.53;;
13406;SDS011;6774;48.208;10.766;2024-03-08T10:22:18;11.47;;;10.47;;
13406;SDS011;6774;48.208;10.766;2024-03-08T10:24:46;12.17;;;10.90;;
13406;SDS011;6774;48.208;10.766;2024-03-08T10:27:17;13.17;;;10.83;;
13406;SDS011;6774;48.208;10.766;2024-03-08T10:29:46;12.97;;;11.67;;
13406;SDS011;6774;48.208;10.766;2024-03-08T10:32:14;11.50;;;10.30;;
13406;SDS011;6774;48.208;10.766;2024-03-08T10:34:42;11.87;;;10.73;;
13406;SDS011;6774;48.208;10.766;2024-03-08T10:37:12;11.30;;;10.10;;
13406;SDS011;6774;48.208;10.766;2024-03-08T10:39:45;11.90;;;10.83;;
13406;SDS011;6774;48.208;10.766;2024-03-08T10:42:40;12.37;;;11.20;;
13406;SDS011;6774;48.208;10.766;2024-03-08T10:45:15;12.70;;;11.57;;
13406;SDS011;6774;48.208;10.766;2024-03-08T10:47:53;10.87;;;9.80;;
13406;SDS011;6774;48.208;10.766;2024-03-08T10:50:32;20.37;;;18.27;;
13406;SDS011;6774;48.208;10.766;2024-03-08T10:53:01;15.37;;;13.77;;
13406;SDS011;6774;48.208;10.766;2024-03-08T10:55:33;11.47;;;10.40;;
13406;SDS011;6774;48.208;10.766;2024-03-08T10:58:05;11.20;;;9.93;;
13406;SDS011;6774;48.208;10.766;2024-03-08T11:00:34;10.10;;;9.20;;
13406;SDS011;6774;48.208;10.766;2024-03-08T11:03:03;11.63;;;10.43;;
13406;SDS011;6774;48.208;10.766;2024-03-08T11:05:32;11.00;;;9.93;;
13406;SDS011;6774;48.208;10.766;2024-03-08T11:08:16;12.30;;;11.10;;
13406;SDS011;6774;48.208;10.766;2024-03-08T11:10:46;10.50;;;9.63;;
13406;SDS011;6774;48.208;10.766;2024-03-08T11:16:10;12.10;;;11.00;;
13406;SDS011;6774;48.208;10.766;2024-03-08T11:18:39;13.33;;;11.33;;
13406;SDS011;6774;48.208;10.766;2024-03-08T11:21:08;13.17;;;11.83;;
13406;SDS011;6774;48.208;10.766;2024-03-08T11:23:39;12.60;;;11.50;;
13406;SDS011;6774;48.208;10.766;2024-03-08T11:26:17;13.20;;;12.07;;
13406;SDS011;6774;48.208;10.766;2024-03-08T11:28:47;11.67;;;10.60;;
13406;SDS011;6774;48.208;10.766;2024-03-08T11:31:24;14.37;;;12.93;;
13406;SDS011;6774;48.208;10.766;2024-03-08T11:33:55;15.17;;;13.70;;
13406;SDS011;6774;48.208;10.766;2024-03-08T11:36:24;12.00;;;10.87;;
13406;SDS011;6774;48.208;10.766;2024-03-08T11:38:53;12.53;;;11.43;;
13406;SDS011;6774;48.208;10.766;2024-03-08T11:41:22;15.80;;;13.50;;
13406;SDS011;6774;48.208;10.766;2024-03-08T11:44:03;13.83;;;12.53;;
13406;SDS011;6774;48.208;10.766;2024-03-08T11:46:33;15.83;;;12.30;;
13406;SDS011;6774;48.208;10.766;2024-03-08T11:49:01;13.03;;;11.83;;
13406;SDS011;6774;48.208;10.766;2024-03-08T11:51:30;15.93;;;14.43;;
13406;SDS011;6774;48.208;10.766;2024-03-08T11:53:59;14.17;;;12.37;;
13406;SDS011;6774;48.208;10.766;2024-03-08T11:56:27;12.80;;;11.50;;
13406;SDS011;6774;48.208;10.766;2024-03-08T11:58:55;14.17;;;11.83;;
13406;SDS011;6774;48.208;10.766;2024-03-08T12:01:26;15.87;;;12.87;;
13406;SDS011;6774;48.208;10.766;2024-03-08T12:03:54;12.10;;;10.97;;
13406;SDS011;6774;48.208;10.766;2024-03-08T12:06:25;13.70;;;12.33;;
13406;SDS011;6774;48.208;10.766;2024-03-08T12:08:54;14.43;;;13.03;;
13406;SDS011;6774;48.208;10.766;2024-03-08T12:11:21;12.40;;;11.13;;
13406;SDS011;6774;48.208;10.766;2024-03-08T12:13:51;11.17;;;10.17;;
13406;SDS011;6774;48.208;10.766;2024-03-08T12:16:20;12.70;;;11.50;;
13406;SDS011;6774;48.208;10.766;2024-03-08T12:18:50;12.20;;;11.13;;
13406;SDS011;6774;48.208;10.766;2024-03-08T12:21:20;14.33;;;12.77;;
13406;SDS011;6774;48.208;10.766;2024-03-08T12:24:01;12.40;;;11.30;;
13406;SDS011;6774;48.208;10.766;2024-03-08T12:26:31;13.10;;;11.90;;
13406;SDS011;6774;48.208;10.766;2024-03-08T12:29:14;17.13;;;15.37;;
13406;SDS011;6774;48.208;10.766;2024-03-08T12:31:43;13.90;;;12.53;;
13406;SDS011;6774;48.208;10.766;2024-03-08T12:34:12;12.67;;;11.57;;
13406;SDS011;6774;48.208;10.766;2024-03-08T12:36:44;13.90;;;12.30;;
13406;SDS011;6774;48.208;10.766;2024-03-08T12:39:17;11.93;;;10.93;;
13406;SDS011;6774;48.208;10.766;2024-03-08T12:41:48;13.23;;;11.93;;
13406;SDS011;6774;48.208;10.766;2024-03-08T12:44:18;12.43;;;11.13;;
13406;SDS011;6774;48.208;10.766;2024-03-08T12:46:48;10.03;;;9.20;;
13406;SDS011;6774;48.208;10.766;2024-03-08T12:49:20;11.57;;;10.13;;
13406;SDS011;6774;48.208;10.766;2024-03-08T12:51:49;14.17;;;12.60;;
13406;SDS011;6774;48.208;10.766;2024-03-08T12:54:19;14.03;;;12.67;;
13406;SDS011;6774;48.208;10.766;2024-03-08T12:56:49;12.03;;;10.97;;
13406;SDS011;6774;48.208;10.766;2024-03-08T12:59:19;11.60;;;10.60;;
13406;SDS011;6774;48.208;10.766;2024-03-08T13:01:48;13.33;;;12.00;;
13406;SDS011;6774;48.208;10.766;2024-03-08T13:04:17;11.33;;;10.33;;
13406;SDS011;6774;48.208;10.766;2024-03-08T13:06:49;11.90;;;10.87;;
13406;SDS011;6774;48.208;10.766;2024-03-08T13:09:20;14.40;;;12.73;;
13406;SDS011;6774;48.208;10.766;2024-03-08T13:11:50;17.47;;;12.87;;
13406;SDS011;6774;48.208;10.766;2024-03-08T13:14:19;12.63;;;11.30;;
13406;SDS011;6774;48.208;10.766;2024-03-08T13:16:47;12.30;;;11.00;;
13406;SDS011;6774;48.208;10.766;2024-03-08T13:19:15;11.60;;;10.40;;
13406;SDS011;6774;48.208;10.766;2024-03-08T13:21:43;13.00;;;11.60;;
13406;SDS011;6774;48.208;10.766;2024-03-08T13:24:16;14.20;;;11.83;;
13406;SDS011;6774;48.208;10.766;2024-03-08T13:26:45;13.43;;;12.27;;
13406;SDS011;6774;48.208;10.766;2024-03-08T13:29:13;13.53;;;11.73;;
13406;SDS011;6774;48.208;10.766;2024-03-08T13:31:41;11.50;;;10.47;;
13406;SDS011;6774;48.208;10.766;2024-03-08T13:34:09;12.90;;;11.67;;
13406;SDS011;6774;48.208;10.766;2024-03-08T13:36:37;14.77;;;13.37;;
13406;SDS011;6774;48.208;10.766;2024-03-08T13:39:10;12.53;;;11.27;;
13406;SDS011;6774;48.208;10.766;2024-03-08T13:41:43;13.07;;;11.90;;
13406;SDS011;6774;48.208;10.766;2024-03-08T13:44:11;10.80;;;9.80;;
13406;SDS011;6774;48.208;10.766;2024-03-08T13:46:39;11.10;;;10.10;;
13406;SDS011;6774;48.208;10.766;2024-03-08T13:49:08;10.97;;;9.90;;
13406;SDS011;6774;48.208;10.766;2024-03-08T13:51:37;13.13;;;11.20;;
13406;SDS011;6774;48.208;10.766;2024-03-08T13:54:05;11.57;;;10.40;;
13406;SDS011;6774;48.208;10.766;2024-03-08T13:56:33;12.63;;;11.43;;
13406;SDS011;6774;48.208;10.766;2024-03-08T13:59:03;11.67;;;10.57;;
13406;SDS011;6774;48.208;10.766;2024-03-08T14:01:30;12.63;;;11.33;;
13406;SDS011;6774;48.208;10.766;2024-03-08T14:03:58;13.17;;;11.87;;
13406;SDS011;6774;48.208;10.766;2024-03-08T14:06:26;13.17;;;11.73;;
13406;SDS011;6774;48.208;10.766;2024-03-08T14:08:54;13.23;;;11.37;;
13406;SDS011;6774;48.208;10.766;2024-03-08T14:11:23;13.30;;;12.00;;
13406;SDS011;6774;48.208;10.766;2024-03-08T14:13:51;13.43;;;12.23;;
13406;SDS011;6774;48.208;10.766;2024-03-08T14:16:21;13.30;;;11.90;;
13406;SDS011;6774;48.208;10.766;2024-03-08T14:18:49;11.33;;;10.23;;
13406;SDS011;6774;48.208;10.766;2024-03-08T14:21:17;13.43;;;12.13;;
13406;SDS011;6774;48.208;10.766;2024-03-08T14:23:44;11.23;;;10.33;;
13406;SDS011;6774;48.208;10.766;2024-03-08T14:26:14;12.07;;;10.77;;
13406;SDS011;6774;48.208;10.766;2024-03-08T14:28:42;13.37;;;11.43;;
13406;SDS011;6774;48.208;10.766;2024-03-08T14:31:11;13.43;;;12.07;;
13406;SDS011;6774;48.208;10.766;2024-03-08T14:33:40;12.67;;;11.30;;
13406;SDS011;6774;48.208;10.766;2024-03-08T14:36:09;12.50;;;11.40;;
13406;SDS011;6774;48.208;10.766;2024-03-08T14:38:39;13.33;;;12.00;;